Time;durP1;ratioP1;P1;durP2;ratioP2;P2;SDS_P1;SDS_P2;PMS_P1;PMS_P2;Temp;Humidity;BMP_temperature;BMP_pressure;BME280_temperature;BME280_humidity;BME280_pressure;Samples;Min_cycle;Max_cycle;Signal;HPM_P1;HPM_P2
2022/10/05 00:01:23;;;;;;;16.83;7.47;;;14.10;99.90;;;;;;5012507;28;20014;-73
2022/10/05 00:03:50;;;;;;;13.48;7.45;;;14.10;99.90;;;;;;5011975;28;20497;-75
2022/10/05 00:06:16;;;;;;;12.63;6.70;;;14.10;99.90;;;;;;5012900;28;20026;-73
2022/10/05 00:08:42;;;;;;;25.17;8.70;;;14.10;99.90;;;;;;5019306;28;20019;-74
2022/10/05 00:11:11;;;;;;;14.45;7.35;;;14.10;99.90;;;;;;5012170;28;20033;-76
2022/10/05 00:13:39;;;;;;;17.48;7.75;;;14.10;99.90;;;;;;5011843;28;20048;-73
2022/10/05 00:16:11;;;;;;;15.02;6.70;;;14.10;99.90;;;;;;5010969;28;20033;-76
2022/10/05 00:18:38;;;;;;;15.95;7.25;;;14.20;99.90;;;;;;5018832;28;20037;-74
2022/10/05 00:21:19;;;;;;;12.27;7.47;;;14.20;99.90;;;;;;5012108;28;20098;-75
2022/10/05 00:23:45;;;;;;;13.55;7.60;;;14.10;99.90;;;;;;5012014;28;20117;-74
2022/10/05 00:26:21;;;;;;;20.17;7.65;;;14.20;99.90;;;;;;5015311;28;20015;-77
2022/10/05 00:28:47;;;;;;;13.25;6.95;;;14.10;99.90;;;;;;5012065;28;20022;-74
2022/10/05 00:31:19;;;;;;;16.77;7.47;;;14.10;99.90;;;;;;5011990;28;20490;-79
2022/10/05 00:33:46;;;;;;;14.32;7.75;;;14.10;99.90;;;;;;5010483;28;20034;-76
2022/10/05 00:36:12;;;;;;;20.80;8.70;;;14.00;99.90;;;;;;5011546;28;20033;-75
2022/10/05 00:38:38;;;;;;;20.02;7.55;;;14.00;99.90;;;;;;5011857;28;20036;-77
2022/10/05 00:41:16;;;;;;;18.15;7.05;;;13.90;99.90;;;;;;5011045;28;20057;-77
2022/10/05 00:44:19;;;;;;;14.77;6.60;;;13.90;99.90;;;;;;5012027;28;20033;-73
2022/10/05 00:46:53;;;;;;;16.75;7.30;;;13.80;99.90;;;;;;5011740;28;20052;-76
2022/10/05 00:49:45;;;;;;;21.88;8.30;;;13.80;99.90;;;;;;5030952;28;20049;-75
2022/10/05 00:52:22;;;;;;;11.07;6.05;;;13.70;99.90;;;;;;5010850;28;20124;-77
2022/10/05 00:55:18;;;;;;;11.93;7.03;;;13.70;99.90;;;;;;5033349;28;20034;-73
2022/10/05 00:57:53;;;;;;;11.50;6.75;;;13.70;99.90;;;;;;5029983;28;20037;-77
2022/10/05 01:00:22;;;;;;;15.82;6.90;;;13.60;99.90;;;;;;5031262;28;20026;-78
2022/10/05 01:02:57;;;;;;;14.07;6.75;;;13.60;99.90;;;;;;5032351;28;20029;-74
2022/10/05 01:06:00;;;;;;;14.13;7.03;;;13.60;99.90;;;;;;5033898;28;20050;-74
2022/10/05 01:08:33;;;;;;;13.30;7.40;;;13.60;99.90;;;;;;5035361;28;20030;-77
2022/10/05 01:11:21;;;;;;;11.15;6.78;;;13.60;99.90;;;;;;5035189;28;20030;-76
2022/10/05 01:14:28;;;;;;;12.85;7.55;;;13.60;99.90;;;;;;5035868;28;20038;-75
2022/10/05 01:17:12;;;;;;;22.55;8.15;;;13.60;99.90;;;;;;5003062;28;20573;-75
2022/10/05 01:20:14;;;;;;;14.90;7.25;;;13.60;99.90;;;;;;5002684;28;20035;-76
2022/10/05 01:22:59;;;;;;;14.25;7.45;;;13.60;99.90;;;;;;5017430;28;20045;-73
2022/10/05 01:25:48;;;;;;;12.32;7.18;;;13.60;99.90;;;;;;5017851;28;20041;-77
2022/10/05 01:28:30;;;;;;;13.75;7.70;;;13.60;99.90;;;;;;5034894;28;20025;-75
2022/10/05 01:31:14;;;;;;;15.25;7.18;;;13.60;99.90;;;;;;5035545;28;20445;-74
2022/10/05 01:33:44;;;;;;;17.58;7.38;;;13.60;99.90;;;;;;5034664;28;20030;-76
2022/10/05 01:36:23;;;;;;;21.55;7.00;;;13.60;99.90;;;;;;5040455;28;20045;-75
2022/10/05 01:39:29;;;;;;;15.02;7.10;;;13.60;99.90;;;;;;5033286;28;20057;-73
2022/10/05 01:42:06;;;;;;;17.38;7.88;;;13.60;99.90;;;;;;5034692;28;20617;-76
2022/10/05 01:44:43;;;;;;;17.45;8.75;;;13.60;99.90;;;;;;5041441;28;20034;-75
2022/10/05 01:47:19;;;;;;;22.13;9.30;;;13.60;99.90;;;;;;5033825;28;20050;-77
2022/10/05 01:50:05;;;;;;;17.25;8.02;;;13.60;99.90;;;;;;5034673;28;20070;-76
2022/10/05 01:52:41;;;;;;;17.40;8.25;;;13.60;99.90;;;;;;5026057;28;20052;-75
2022/10/05 01:55:38;;;;;;;16.00;9.10;;;13.60;99.90;;;;;;5049738;28;20036;-78
2022/10/05 01:58:28;;;;;;;15.30;7.57;;;13.50;99.90;;;;;;5032131;28;20038;-75
2022/10/05 02:01:13;;;;;;;17.05;7.90;;;13.60;99.90;;;;;;5019429;28;20034;-79
2022/10/05 02:03:46;;;;;;;12.27;7.10;;;13.50;99.90;;;;;;5033029;28;20044;-74
2022/10/05 02:06:27;;;;;;;25.50;7.57;;;13.50;99.90;;;;;;5034086;28;20028;-74
2022/10/05 02:09:10;;;;;;;15.63;7.82;;;13.60;99.90;;;;;;5040709;28;20049;-75
2022/10/05 02:11:38;;;;;;;14.90;7.78;;;13.50;99.90;;;;;;5033982;28;20026;-76
2022/10/05 02:14:12;;;;;;;14.48;7.75;;;13.50;99.90;;;;;;5032195;28;20030;-75
2022/10/05 02:16:42;;;;;;;16.77;8.88;;;13.50;99.90;;;;;;5033529;28;20029;-76
2022/10/05 02:19:08;;;;;;;18.50;8.20;;;13.50;99.90;;;;;;5032821;28;20042;-75
2022/10/05 02:21:35;;;;;;;14.63;8.18;;;13.50;99.90;;;;;;5034271;28;20134;-74
2022/10/05 02:24:07;;;;;;;19.45;8.55;;;13.50;99.90;;;;;;5033702;28;20085;-73
2022/10/05 02:26:35;;;;;;;14.30;7.40;;;13.50;99.90;;;;;;5032661;28;20050;-75
2022/10/05 02:29:11;;;;;;;19.50;8.40;;;13.50;99.90;;;;;;5034048;28;20018;-75
2022/10/05 02:31:49;;;;;;;16.33;8.60;;;13.50;99.90;;;;;;5033721;28;20109;-75
2022/10/05 02:34:31;;;;;;;20.20;8.95;;;13.50;99.90;;;;;;5034143;28;20041;-76
2022/10/05 02:37:33;;;;;;;16.45;8.27;;;13.50;99.90;;;;;;5049087;28;20026;-75
2022/10/05 02:40:14;;;;;;;15.70;7.60;;;13.40;99.90;;;;;;4982508;28;20034;-76
2022/10/05 02:43:10;;;;;;;19.58;7.57;;;13.40;99.90;;;;;;5027405;28;20093;-74
2022/10/05 02:45:47;;;;;;;14.93;8.10;;;13.40;99.90;;;;;;5033064;28;20034;-75
2022/10/05 02:48:43;;;;;;;15.52;7.78;;;13.40;99.90;;;;;;5033202;28;20499;-77
2022/10/05 02:51:23;;;;;;;17.02;8.10;;;13.40;99.90;;;;;;5036025;28;20045;-74
2022/10/05 02:53:51;;;;;;;17.65;7.70;;;13.40;99.90;;;;;;5032053;28;20073;-77
2022/10/05 02:56:29;;;;;;;18.88;7.93;;;13.40;99.90;;;;;;5033796;28;20037;-76
2022/10/05 02:59:01;;;;;;;15.45;7.63;;;13.40;99.90;;;;;;5033142;28;20021;-77
2022/10/05 03:01:40;;;;;;;14.75;7.30;;;13.40;99.90;;;;;;5034762;28;20030;-73
2022/10/05 03:04:28;;;;;;;18.55;7.55;;;13.40;99.90;;;;;;5034006;28;20034;-76
2022/10/05 03:07:15;;;;;;;18.48;8.65;;;13.40;99.90;;;;;;5039502;28;20036;-80
2022/10/05 03:09:56;;;;;;;19.10;8.35;;;13.40;99.90;;;;;;5033578;28;20425;-73
2022/10/05 03:12:33;;;;;;;14.02;7.57;;;13.40;99.90;;;;;;5031475;28;20091;-74
2022/10/05 03:15:21;;;;;;;14.55;8.00;;;13.40;99.90;;;;;;5032722;28;20032;-78
2022/10/05 03:18:21;;;;;;;17.38;8.15;;;13.40;99.90;;;;;;5033642;28;20030;-73
2022/10/05 03:21:13;;;;;;;19.20;7.20;;;13.40;99.90;;;;;;5032487;28;20030;-74
2022/10/05 03:24:16;;;;;;;13.35;7.38;;;13.40;99.90;;;;;;5032874;28;20022;-76
2022/10/05 03:27:00;;;;;;;13.93;7.93;;;13.40;99.90;;;;;;5030185;28;20030;-76
2022/10/05 03:30:15;;;;;;;18.45;7.50;;;13.40;99.90;;;;;;5033116;28;20036;-78
2022/10/05 03:32:58;;;;;;;18.88;8.85;;;13.40;99.90;;;;;;5042342;28;20053;-75
2022/10/05 03:36:01;;;;;;;17.15;8.07;;;13.40;99.90;;;;;;5030529;28;20113;-76
2022/10/05 03:38:59;;;;;;;17.55;8.75;;;13.40;99.90;;;;;;5033792;28;20034;-74
2022/10/05 03:41:28;;;;;;;15.55;7.93;;;13.40;99.90;;;;;;5033137;28;20049;-75
2022/10/05 03:44:00;;;;;;;25.05;8.65;;;13.40;99.90;;;;;;5032935;28;20025;-75
2022/10/05 03:46:42;;;;;;;20.85;9.02;;;13.40;99.90;;;;;;5033038;28;20029;-79
2022/10/05 03:49:48;;;;;;;18.63;8.45;;;13.40;99.90;;;;;;5031944;28;20041;-75
2022/10/05 03:52:16;;;;;;;18.42;9.45;;;13.40;99.90;;;;;;5047743;28;20049;-75
2022/10/05 03:54:46;;;;;;;22.25;8.98;;;13.40;99.90;;;;;;5032294;28;20017;-75
2022/10/05 03:57:22;;;;;;;18.00;8.60;;;13.40;99.90;;;;;;5038741;28;20028;-76
2022/10/05 04:00:00;;;;;;;15.23;8.77;;;13.40;99.90;;;;;;5033377;28;20128;-72
2022/10/05 04:02:32;;;;;;;17.38;8.23;;;13.50;99.90;;;;;;5032362;28;20025;-75
2022/10/05 04:05:04;;;;;;;14.43;8.40;;;13.40;99.90;;;;;;5016117;28;20026;-74
2022/10/05 04:07:35;;;;;;;19.50;8.27;;;13.50;99.90;;;;;;5033343;28;20033;-75
2022/10/05 04:10:06;;;;;;;18.15;9.35;;;13.50;99.90;;;;;;5031842;28;20018;-74
2022/10/05 04:12:40;;;;;;;14.30;8.23;;;13.50;99.90;;;;;;5032044;28;20038;-74
2022/10/05 04:15:18;;;;;;;20.83;8.90;;;13.50;99.90;;;;;;5031658;28;20033;-74
2022/10/05 04:17:49;;;;;;;16.85;8.63;;;13.50;99.90;;;;;;5033699;28;20038;-73
2022/10/05 04:20:41;;;;;;;16.73;8.23;;;13.50;99.90;;;;;;5029767;28;20097;-74
2022/10/05 04:23:17;;;;;;;13.75;8.20;;;13.50;99.90;;;;;;5031659;28;20030;-75
2022/10/05 04:25:50;;;;;;;18.92;8.55;;;13.50;99.90;;;;;;5032048;28;20489;-77
2022/10/05 04:28:56;;;;;;;13.32;7.75;;;13.40;99.90;;;;;;5032100;28;20017;-73
2022/10/05 04:31:35;;;;;;;16.55;8.98;;;13.40;99.90;;;;;;5033320;28;20037;-73
2022/10/05 04:34:17;;;;;;;16.20;9.05;;;13.40;99.90;;;;;;5031709;28;20097;-75
2022/10/05 04:36:57;;;;;;;19.90;8.88;;;13.40;99.90;;;;;;5031364;28;20425;-74
2022/10/05 04:39:28;;;;;;;16.00;8.65;;;13.40;99.90;;;;;;5031799;28;20029;-75
2022/10/05 04:42:09;;;;;;;25.15;9.27;;;13.40;99.90;;;;;;5031579;28;20093;-75
2022/10/05 04:45:01;;;;;;;17.33;8.98;;;13.40;99.90;;;;;;5031472;28;20053;-74
2022/10/05 04:47:58;;;;;;;17.83;8.75;;;13.40;99.90;;;;;;5032835;28;20069;-77
2022/10/05 04:50:54;;;;;;;16.70;8.63;;;13.40;99.90;;;;;;5029360;28;20037;-75
2022/10/05 04:53:42;;;;;;;20.30;8.85;;;13.40;99.90;;;;;;5037106;28;20034;-74
2022/10/05 04:56:16;;;;;;;20.40;8.80;;;13.40;99.90;;;;;;5031347;28;20038;-76
2022/10/05 04:58:52;;;;;;;;;;;13.40;99.90;;;;;;5030304;28;20038;-75
2022/10/05 05:01:21;;;;;;;20.88;9.43;;;13.40;99.90;;;;;;5031506;28;19913;-75
2022/10/05 05:04:14;;;;;;;20.50;9.00;;;13.40;99.90;;;;;;5033256;28;20021;-74
2022/10/05 05:07:01;;;;;;;16.15;8.50;;;13.30;99.90;;;;;;5026104;28;20033;-73
2022/10/05 05:09:39;;;;;;;20.17;9.68;;;13.30;99.90;;;;;;5037224;28;20139;-75
2022/10/05 05:12:10;;;;;;;23.95;9.63;;;13.30;99.90;;;;;;5031220;28;20022;-75
2022/10/05 05:14:41;;;;;;;26.45;9.65;;;13.30;99.90;;;;;;5031070;28;20089;-74
2022/10/05 05:17:36;;;;;;;24.63;10.02;;;13.20;99.90;;;;;;5038843;28;20029;-76
2022/10/05 05:20:05;;;;;;;;;;;13.20;99.90;;;;;;5028946;28;20042;-75
2022/10/05 05:22:42;;;;;;;19.05;9.80;;;13.20;99.90;;;;;;5032093;28;19905;-75
2022/10/05 05:25:35;;;;;;;17.52;9.43;;;13.20;99.90;;;;;;5032384;28;20037;-73
2022/10/05 05:28:18;;;;;;;19.60;10.32;;;13.20;99.90;;;;;;5031063;28;20044;-74
2022/10/05 05:30:46;;;;;;;20.92;11.25;;;13.20;99.90;;;;;;5031539;28;20026;-74
2022/10/05 05:33:37;;;;;;;20.27;10.07;;;13.20;99.90;;;;;;5036369;28;20126;-75
2022/10/05 05:36:23;;;;;;;23.08;11.07;;;13.20;99.90;;;;;;5031415;28;20029;-76
2022/10/05 05:39:01;;;;;;;19.60;9.88;;;13.20;99.90;;;;;;5037542;28;20034;-74
2022/10/05 05:41:38;;;;;;;18.85;10.63;;;13.20;99.90;;;;;;5030698;28;20070;-76
2022/10/05 05:44:25;;;;;;;24.42;10.73;;;13.20;99.90;;;;;;5031222;28;20080;-74
2022/10/05 05:47:01;;;;;;;22.20;11.05;;;13.20;99.90;;;;;;5035951;28;20044;-74
2022/10/05 05:50:05;;;;;;;19.35;11.88;;;13.20;99.90;;;;;;5032615;28;20121;-76
2022/10/05 05:52:35;;;;;;;20.75;10.82;;;13.20;99.90;;;;;;5035142;28;20049;-76
2022/10/05 05:55:23;;;;;;;21.90;11.65;;;13.20;99.90;;;;;;5034883;28;20034;-76
2022/10/05 05:58:19;;;;;;;26.55;11.68;;;13.20;99.90;;;;;;5034971;28;20053;-75
2022/10/05 06:01:00;;;;;;;21.30;12.40;;;13.20;99.90;;;;;;5040800;28;20029;-73
2022/10/05 06:03:31;;;;;;;18.63;10.45;;;13.20;99.90;;;;;;5034891;28;20525;-74
2022/10/05 06:06:03;;;;;;;21.92;11.60;;;13.20;99.90;;;;;;5041838;28;20124;-75
2022/10/05 06:08:46;;;;;;;24.30;12.50;;;13.20;99.90;;;;;;5034348;28;20036;-75
2022/10/05 06:11:22;;;;;;;24.52;12.65;;;13.30;99.90;;;;;;5033052;28;20017;-73
2022/10/05 06:13:48;;;;;;;29.23;12.52;;;13.30;99.90;;;;;;5034666;28;20797;-74
2022/10/05 06:16:35;;;;;;;26.63;12.57;;;13.30;99.90;;;;;;5033550;28;20037;-76
2022/10/05 06:19:15;;;;;;;22.67;12.02;;;13.30;99.90;;;;;;5033807;28;20052;-75
2022/10/05 06:22:09;;;;;;;25.90;12.85;;;13.30;99.90;;;;;;5032425;28;20022;-75
2022/10/05 06:24:54;;;;;;;27.63;14.13;;;13.30;99.90;;;;;;5033504;28;20098;-74
2022/10/05 06:28:11;;;;;;;24.60;13.10;;;13.30;99.90;;;;;;5035331;28;20045;-75
2022/10/05 06:31:10;;;;;;;25.85;12.30;;;13.40;99.90;;;;;;5001623;28;20046;-73
2022/10/05 06:33:52;;;;;;;24.75;13.10;;;13.40;99.90;;;;;;5034219;28;20061;-75
2022/10/05 06:36:25;;;;;;;28.42;12.93;;;13.50;99.90;;;;;;5033365;28;20026;-75
2022/10/05 06:38:56;;;;;;;29.10;12.70;;;13.50;99.90;;;;;;5036356;28;20028;-74
2022/10/05 06:41:40;;;;;;;25.17;12.68;;;13.50;99.90;;;;;;5032698;28;20034;-73
2022/10/05 06:44:21;;;;;;;23.10;13.00;;;13.50;99.90;;;;;;5033612;28;20037;-74
2022/10/05 06:47:13;;;;;;;24.98;12.38;;;13.50;99.90;;;;;;5033320;28;20036;-73
2022/10/05 06:49:51;;;;;;;24.98;12.65;;;13.60;99.90;;;;;;5017718;28;20049;-73
2022/10/05 06:52:24;;;;;;;19.40;12.20;;;13.60;99.90;;;;;;5033276;28;20029;-74
2022/10/05 06:55:21;;;;;;;22.08;12.65;;;13.60;99.90;;;;;;5033115;28;20030;-76
2022/10/05 06:58:26;;;;;;;24.92;12.25;;;13.70;99.90;;;;;;5034594;28;20090;-73
2022/10/05 07:01:01;;;;;;;25.63;13.05;;;13.70;99.90;;;;;;4980781;28;20035;-73
2022/10/05 07:03:58;;;;;;;24.42;12.00;;;13.70;99.90;;;;;;5026648;28;20049;-74
2022/10/05 07:06:43;;;;;;;20.40;11.25;;;13.70;99.90;;;;;;5034771;28;20033;-73
2022/10/05 07:09:27;;;;;;;26.33;12.45;;;13.70;99.90;;;;;;5035184;28;20064;-74
2022/10/05 07:12:28;;;;;;;20.85;12.07;;;13.70;99.90;;;;;;5030971;28;20033;-73
2022/10/05 07:15:13;;;;;;;21.05;11.65;;;13.70;99.90;;;;;;5015747;28;20053;-73
2022/10/05 07:18:12;;;;;;;32.30;12.65;;;13.80;99.90;;;;;;5033478;28;20034;-74
2022/10/05 07:20:45;;;;;;;26.95;12.75;;;13.70;99.90;;;;;;5033945;28;20038;-75
2022/10/05 07:23:30;;;;;;;23.10;12.85;;;13.80;99.90;;;;;;5033928;28;20024;-72
2022/10/05 07:26:01;;;;;;;28.58;12.68;;;13.80;99.90;;;;;;5033125;28;20469;-74
2022/10/05 07:29:06;;;;;;;27.65;13.40;;;13.80;99.90;;;;;;5033329;28;20022;-74
2022/10/05 07:31:38;;;;;;;28.65;13.77;;;13.80;99.90;;;;;;5038186;28;20048;-75
2022/10/05 07:34:27;;;;;;;23.73;12.27;;;13.80;99.90;;;;;;5032790;28;20038;-74
2022/10/05 07:40:16;;;;;;;27.65;14.65;;;13.90;99.90;;;;;;5033612;28;20028;-73
2022/10/05 07:42:42;;;;;;;33.15;14.07;;;13.90;99.90;;;;;;5033012;28;20029;-75
2022/10/05 07:45:46;;;;;;;24.10;12.73;;;14.00;99.90;;;;;;5032838;28;20036;-75
2022/10/05 07:48:32;;;;;;;30.57;14.03;;;14.00;99.90;;;;;;5031262;28;20054;-75
2022/10/05 07:51:12;;;;;;;25.80;13.75;;;14.00;99.90;;;;;;5034730;28;20064;-76
2022/10/05 07:53:42;;;;;;;34.92;13.88;;;14.00;99.90;;;;;;5032439;28;20045;-76
2022/10/05 07:56:20;;;;;;;24.08;12.73;;;14.10;99.90;;;;;;5047736;28;20092;-75
2022/10/05 07:59:12;;;;;;;25.10;12.93;;;14.10;99.90;;;;;;5033081;28;20048;-74
2022/10/05 08:01:43;;;;;;;27.75;12.40;;;14.20;99.90;;;;;;5032962;28;20038;-76
2022/10/05 08:04:37;;;;;;;31.15;13.15;;;14.20;99.90;;;;;;5032753;28;20155;-73
2022/10/05 08:07:11;;;;;;;25.77;13.52;;;14.30;99.90;;;;;;5032405;28;20034;-74
2022/10/05 08:09:51;;;;;;;25.25;12.77;;;14.30;99.90;;;;;;5033279;28;20093;-74
2022/10/05 08:12:44;;;;;;;20.10;11.73;;;14.40;99.90;;;;;;5031042;28;20044;-73
2022/10/05 08:15:16;;;;;;;23.58;11.85;;;14.40;99.90;;;;;;5031559;28;20022;-72
2022/10/05 08:18:01;;;;;;;25.27;11.07;;;14.40;99.90;;;;;;5031453;28;20054;-73
2022/10/05 08:21:00;;;;;;;28.38;12.32;;;14.50;99.90;;;;;;5032858;28;20036;-73
2022/10/05 08:23:44;;;;;;;23.23;10.65;;;14.50;99.90;;;;;;5031754;28;20025;-73
2022/10/05 08:26:42;;;;;;;27.73;10.63;;;14.60;99.90;;;;;;5032567;28;20018;-74
2022/10/05 08:29:33;;;;;;;20.40;10.57;;;14.60;99.90;;;;;;5034086;28;20083;-71
2022/10/05 08:32:10;;;;;;;16.08;9.80;;;14.60;99.90;;;;;;5034454;28;20030;-71
2022/10/05 08:35:16;;;;;;;14.65;10.00;;;14.70;99.90;;;;;;5031169;28;20044;-73
2022/10/05 08:37:44;;;;;;;22.52;9.50;;;14.70;99.90;;;;;;5026001;28;20041;-73
2022/10/05 08:40:38;;;;;;;16.15;8.90;;;14.70;99.90;;;;;;5035749;28;20133;-74
2022/10/05 08:43:22;;;;;;;16.98;9.25;;;14.80;99.90;;;;;;5032501;28;20037;-71
2022/10/05 08:46:19;;;;;;;19.17;9.32;;;14.80;99.90;;;;;;5030048;28;20048;-72
2022/10/05 08:49:09;;;;;;;17.98;9.35;;;14.90;99.90;;;;;;5032491;28;20061;-74
2022/10/05 08:52:10;;;;;;;17.77;8.32;;;14.90;99.90;;;;;;5035110;28;20048;-76
2022/10/05 08:54:42;;;;;;;22.98;9.13;;;15.00;99.90;;;;;;5031700;28;20414;-73
2022/10/05 08:57:26;;;;;;;18.15;8.45;;;15.00;99.90;;;;;;5034777;28;20025;-75
2022/10/05 09:00:15;;;;;;;21.38;8.82;;;15.00;99.90;;;;;;5030097;28;20032;-72
2022/10/05 09:03:01;;;;;;;17.92;7.97;;;15.00;99.90;;;;;;5032038;28;20039;-70
2022/10/05 09:05:51;;;;;;;16.17;7.57;;;15.00;99.90;;;;;;5022762;28;20030;-71
2022/10/05 09:08:51;;;;;;;17.38;8.48;;;15.10;99.90;;;;;;5033015;28;20029;-73
2022/10/05 09:11:30;;;;;;;11.57;7.75;;;15.10;99.90;;;;;;5032075;28;20105;-74
2022/10/05 09:14:27;;;;;;;15.93;8.27;;;15.10;99.90;;;;;;5037891;28;20057;-72
2022/10/05 09:17:15;;;;;;;24.95;7.60;;;15.20;99.90;;;;;;5038772;28;20076;-73
2022/10/05 09:20:05;;;;;;;19.13;8.20;;;15.20;99.90;;;;;;5031340;28;20030;-72
2022/10/05 09:22:37;;;;;;;15.02;8.55;;;15.20;99.90;;;;;;5032012;28;20451;-76
2022/10/05 09:25:16;;;;;;;15.85;8.38;;;15.20;99.90;;;;;;5042086;28;20076;-71
2022/10/05 09:28:15;;;;;;;15.90;8.50;;;15.30;99.90;;;;;;5034517;28;20018;-73
2022/10/05 09:31:10;;;;;;;16.35;9.00;;;15.30;99.90;;;;;;5035144;28;20030;-72
2022/10/05 09:34:06;;;;;;;18.60;9.05;;;15.30;99.90;;;;;;5035585;28;20025;-77
2022/10/05 09:36:47;;;;;;;15.80;9.18;;;15.30;99.90;;;;;;5036873;28;20036;-73
2022/10/05 09:39:19;;;;;;;17.80;9.65;;;15.30;99.90;;;;;;5036728;28;20064;-72
2022/10/05 09:42:18;;;;;;;22.13;9.75;;;15.30;99.90;;;;;;5034155;28;20063;-72
2022/10/05 09:45:10;;;;;;;16.27;8.88;;;15.30;99.90;;;;;;5035761;28;20120;-71
2022/10/05 09:47:58;;;;;;;17.35;9.48;;;15.30;99.90;;;;;;5017205;28;20064;-76
2022/10/05 09:50:47;;;;;;;20.58;8.75;;;15.30;99.90;;;;;;5038112;28;21533;-72
2022/10/05 09:53:39;;;;;;;15.00;9.18;;;15.30;99.90;;;;;;5034550;28;20533;-71
2022/10/05 09:56:14;;;;;;;21.20;8.43;;;15.30;99.90;;;;;;5035831;28;20022;-76
2022/10/05 09:58:58;;;;;;;17.45;9.10;;;15.40;99.90;;;;;;5040822;28;20393;-74
2022/10/05 10:01:36;;;;;;;14.07;8.60;;;15.30;99.90;;;;;;5036240;28;20045;-73
2022/10/05 10:04:29;;;;;;;16.83;9.38;;;15.40;99.90;;;;;;5035089;28;20029;-74
2022/10/05 10:07:13;;;;;;;26.95;8.80;;;15.40;99.90;;;;;;5032625;28;20044;-70
2022/10/05 10:09:51;;;;;;;19.92;8.77;;;15.40;99.90;;;;;;5033771;28;20043;-74
2022/10/05 10:12:31;;;;;;;17.45;8.50;;;15.40;99.90;;;;;;5032568;28;20433;-74
2022/10/05 10:15:39;;;;;;;11.45;7.10;;;15.40;99.90;;;;;;5039837;28;20033;-73
2022/10/05 10:18:37;;;;;;;12.70;7.78;;;15.50;99.90;;;;;;5016485;28;20030;-70
2022/10/05 10:21:34;;;;;;;12.98;7.25;;;15.50;99.90;;;;;;5033510;28;20167;-73
2022/10/05 10:24:17;;;;;;;12.50;6.88;;;15.60;99.90;;;;;;5020436;28;20041;-72
2022/10/05 10:26:51;;;;;;;12.85;6.32;;;15.60;99.90;;;;;;5033562;28;20033;-70
2022/10/05 10:29:23;;;;;;;;;;;15.60;99.90;;;;;;5034207;28;20037;-75
2022/10/05 10:31:48;;;;;;;12.48;6.55;;;15.60;99.90;;;;;;5046210;28;19913;-74
2022/10/05 10:34:54;;;;;;;11.18;6.95;;;15.70;99.90;;;;;;5034948;28;20033;-72
2022/10/05 10:37:57;;;;;;;10.48;6.70;;;15.70;99.90;;;;;;5034373;28;20057;-71
2022/10/05 10:40:37;;;;;;;13.45;6.85;;;15.80;99.90;;;;;;5039016;28;20370;-74
2022/10/05 10:43:21;;;;;;;10.32;6.15;;;15.80;99.90;;;;;;5032763;28;20553;-74
2022/10/05 10:46:04;;;;;;;11.68;5.10;;;15.90;99.90;;;;;;5033426;28;20052;-72
2022/10/05 10:48:50;;;;;;;8.88;5.60;;;15.90;99.90;;;;;;5032985;28;20081;-74
2022/10/05 10:51:38;;;;;;;13.93;5.22;;;16.00;99.90;;;;;;5030205;28;20034;-72
2022/10/05 10:54:28;;;;;;;6.88;4.63;;;16.10;99.90;;;;;;5034534;28;20132;-73
2022/10/05 10:57:14;;;;;;;8.30;4.75;;;16.10;99.90;;;;;;5034130;28;20055;-73
2022/10/05 10:59:54;;;;;;;16.27;5.20;;;16.20;99.90;;;;;;5033423;28;20034;-70
2022/10/05 11:02:56;;;;;;;11.20;4.50;;;16.20;99.90;;;;;;5034244;28;20125;-76
2022/10/05 11:05:33;;;;;;;8.38;4.50;;;16.20;99.90;;;;;;5033658;28;20052;-73
2022/10/05 11:08:11;;;;;;;17.60;5.72;;;16.30;99.90;;;;;;5049223;28;20064;-74
2022/10/05 11:11:11;;;;;;;6.93;4.63;;;16.40;99.90;;;;;;5033454;28;20036;-71
2022/10/05 11:14:01;;;;;;;8.50;4.78;;;16.50;99.90;;;;;;5030717;28;20072;-74
2022/10/05 11:16:48;;;;;;;8.98;5.18;;;16.60;99.90;;;;;;5034042;28;20053;-74
2022/10/05 11:19:23;;;;;;;6.07;3.85;;;16.60;99.90;;;;;;5031448;28;20390;-72
2022/10/05 11:22:16;;;;;;;11.55;4.70;;;16.70;99.90;;;;;;5048029;28;20029;-75
2022/10/05 11:25:20;;;;;;;10.02;4.93;;;16.70;99.90;;;;;;5039917;28;20026;-74
2022/10/05 11:28:09;;;;;;;8.88;4.55;;;16.80;99.90;;;;;;5033543;28;20021;-74
2022/10/05 11:30:43;;;;;;;9.10;4.88;;;16.90;99.90;;;;;;5033645;28;20034;-74
2022/10/05 11:33:10;;;;;;;9.20;4.43;;;16.90;99.90;;;;;;5032849;28;20045;-75
2022/10/05 11:36:00;;;;;;;7.63;4.63;;;17.00;99.90;;;;;;5033148;28;20021;-71
2022/10/05 11:38:44;;;;;;;7.28;4.70;;;17.10;99.90;;;;;;5033090;28;20030;-74
2022/10/05 11:41:43;;;;;;;8.07;4.60;;;17.20;99.90;;;;;;5047973;28;20093;-74
2022/10/05 11:44:37;;;;;;;7.28;4.05;;;17.30;99.90;;;;;;5032568;28;20029;-72
2022/10/05 11:47:21;;;;;;;10.80;4.40;;;17.40;99.90;;;;;;5032004;28;20089;-72
2022/10/05 11:50:05;;;;;;;10.82;4.75;;;17.40;99.90;;;;;;5032246;28;20026;-73
2022/10/05 11:52:55;;;;;;;8.90;4.55;;;17.50;99.90;;;;;;5032348;28;20030;-73
2022/10/05 11:55:48;;;;;;;11.50;4.00;;;17.60;99.90;;;;;;5032954;28;20041;-72
2022/10/05 11:58:30;;;;;;;4.32;2.80;;;17.90;99.90;;;;;;5032497;28;20421;-73
2022/10/05 12:01:20;;;;;;;9.15;4.00;;;17.90;99.90;;;;;;5032308;28;20033;-71
2022/10/05 12:04:04;;;;;;;4.82;3.15;;;18.00;99.90;;;;;;5032443;28;20049;-67
2022/10/05 12:06:39;;;;;;;8.82;3.78;;;18.10;99.90;;;;;;5032431;28;20053;-75
2022/10/05 12:09:10;;;;;;;4.60;2.78;;;18.10;99.90;;;;;;5033024;28;20025;-73
2022/10/05 12:11:42;;;;;;;13.00;3.13;;;18.10;99.90;;;;;;5032748;28;20033;-76
2022/10/05 12:14:48;;;;;;;5.25;2.90;;;18.20;99.90;;;;;;5032050;28;20058;-74
2022/10/05 12:17:13;;;;;;;6.65;2.83;;;18.30;99.90;;;;;;5000236;28;20094;-76
2022/10/05 12:19:50;;;;;;;5.30;3.10;;;18.30;99.90;;;;;;5026503;28;20042;-73
2022/10/05 12:22:31;;;;;;;5.70;3.00;;;18.20;99.90;;;;;;5032037;28;20029;-72
2022/10/05 12:25:21;;;;;;;9.07;2.63;;;18.20;99.90;;;;;;5039253;28;20026;-71
2022/10/05 12:27:55;;;;;;;8.00;2.53;;;18.40;99.90;;;;;;5031179;28;20029;-74
2022/10/05 12:30:25;;;;;;;;;;;18.30;99.90;;;;;;5035342;28;20065;-72
2022/10/05 12:33:00;;;;;;;5.07;2.80;;;18.40;99.90;;;;;;5037907;28;19928;-76
2022/10/05 12:35:40;;;;;;;5.93;2.90;;;18.40;99.90;;;;;;5033109;28;20168;-75
2022/10/05 12:38:38;;;;;;;3.85;2.63;;;18.40;99.90;;;;;;5031476;28;20022;-75
2022/10/05 12:41:20;;;;;;;5.47;3.20;;;18.40;99.90;;;;;;5031327;28;20030;-79
2022/10/05 12:44:11;;;;;;;5.68;3.30;;;18.50;99.90;;;;;;5031835;28;20029;-76
2022/10/05 12:46:42;;;;;;;6.97;3.00;;;18.60;99.90;;;;;;5046147;28;20441;-74
2022/10/05 12:49:22;;;;;;;4.55;3.08;;;18.70;99.90;;;;;;5034602;28;20045;-76
2022/10/05 12:51:56;;;;;;;6.38;2.97;;;18.90;99.90;;;;;;5039395;28;20029;-76
2022/10/05 12:54:51;;;;;;;7.13;3.45;;;19.10;99.90;;;;;;5032620;28;20041;-76
2022/10/05 12:57:37;;;;;;;7.75;2.90;;;19.20;99.90;;;;;;5021773;28;20034;-72
2022/10/05 13:00:02;;;;;;;7.60;2.53;;;19.30;99.90;;;;;;5038915;28;20034;-77
2022/10/05 13:02:42;;;;;;;3.70;2.30;;;19.30;99.90;;;;;;5053463;28;20042;-73
2022/10/05 13:05:08;;;;;;;6.88;3.17;;;19.40;99.90;;;;;;5044774;28;20025;-75
2022/10/05 13:07:52;;;;;;;7.05;2.55;;;19.30;99.90;;;;;;5038677;28;20037;-73
2022/10/05 13:10:44;;;;;;;5.10;2.72;;;19.20;99.90;;;;;;5045389;28;20038;-72
2022/10/05 13:13:47;;;;;;;4.20;2.30;;;19.20;99.90;;;;;;5038485;28;20041;-75
2022/10/05 13:16:58;;;;;;;6.55;2.47;;;19.20;99.90;;;;;;5039511;28;20071;-72
2022/10/05 13:19:53;;;;;;;7.38;3.10;;;19.10;99.90;;;;;;5035262;28;20040;-77
2022/10/05 13:22:31;;;;;;;;;;;19.10;99.90;;;;;;5038813;28;20094;-76
2022/10/05 13:25:22;;;;;;;5.10;2.88;;;19.10;99.90;;;;;;5037571;28;19916;-74
2022/10/05 13:28:18;;;;;;;7.88;3.20;;;19.10;99.90;;;;;;5033823;28;20069;-73
2022/10/05 13:31:26;;;;;;;8.15;3.65;;;19.00;99.90;;;;;;5037185;28;20678;-73
2022/10/05 13:34:16;;;;;;;5.15;2.72;;;18.90;99.90;;;;;;5020801;28;20059;-74
2022/10/05 13:37:16;;;;;;;7.05;3.53;;;18.90;99.90;;;;;;5037727;28;20102;-77
2022/10/05 13:40:07;;;;;;;7.13;3.22;;;18.80;99.90;;;;;;5038926;28;20022;-70
2022/10/05 13:42:56;;;;;;;6.50;3.65;;;18.80;99.90;;;;;;5045922;28;20041;-75
2022/10/05 13:45:24;;;;;;;9.98;3.47;;;18.70;99.90;;;;;;5033932;28;20042;-74
2022/10/05 13:48:23;;;;;;;6.10;3.55;;;18.70;99.90;;;;;;5037680;28;20049;-75
2022/10/05 13:51:02;;;;;;;10.73;3.75;;;18.60;99.90;;;;;;5038244;28;20033;-71
2022/10/05 13:53:54;;;;;;;6.07;3.50;;;18.60;99.90;;;;;;5037637;28;20034;-73
2022/10/05 13:56:29;;;;;;;7.65;3.80;;;18.60;99.90;;;;;;5033587;28;20108;-74
2022/10/05 13:59:21;;;;;;;6.85;3.40;;;18.60;99.90;;;;;;5053775;28;20093;-73
2022/10/05 14:01:57;;;;;;;8.38;3.60;;;18.60;99.90;;;;;;5040165;28;20028;-73
2022/10/05 14:04:28;;;;;;;9.60;3.33;;;18.60;99.90;;;;;;5036417;28;20033;-74